sensor_id;sensor_type;location;lat;lon;timestamp;P1;P2;P0
38687;PMS5003;24444;53.216;-6.664;2022-12-18T00:01:51;8;8;
38687;PMS5003;24444;53.216;-6.664;2022-12-18T00:04:20;8;6;
38687;PMS5003;24444;53.216;-6.664;2022-12-18T00:06:49;9;7;
38687;PMS5003;24444;53.216;-6.664;2022-12-18T00:09:16;10;9;
38687;PMS5003;24444;53.216;-6.664;2022-12-18T00:11:44;13;11;
38687;PMS5003;24444;53.216;-6.664;2022-12-18T00:14:12;18;15;
38687;PMS5003;24444;53.216;-6.664;2022-12-18T00:16:40;20;18;
38687;PMS5003;24444;53.216;-6.664;2022-12-18T00:19:10;21;19;
38687;PMS5003;24444;53.216;-6.664;2022-12-18T00:21:41;22;20;
38687;PMS5003;24444;53.216;-6.664;2022-12-18T00:24:09;10;9;
38687;PMS5003;24444;53.216;-6.664;2022-12-18T00:26:37;10;8;
38687;PMS5003;24444;53.216;-6.664;2022-12-18T00:29:06;13;8;
38687;PMS5003;24444;53.216;-6.664;2022-12-18T00:31:34;5;4;
38687;PMS5003;24444;53.216;-6.664;2022-12-18T00:34:02;4;4;
38687;PMS5003;24444;53.216;-6.664;2022-12-18T00:36:30;10;7;
38687;PMS5003;24444;53.216;-6.664;2022-12-18T00:38:59;7;7;
38687;PMS5003;24444;53.216;-6.664;2022-12-18T00:41:30;6;6;
38687;PMS5003;24444;53.216;-6.664;2022-12-18T00:43:58;6;6;
38687;PMS5003;24444;53.216;-6.664;2022-12-18T00:46:25;4;4;
38687;PMS5003;24444;53.216;-6.664;2022-12-18T00:48:53;20;17;
38687;PMS5003;24444;53.216;-6.664;2022-12-18T00:51:20;3;2;
38687;PMS5003;24444;53.216;-6.664;2022-12-18T00:53:48;9;9;
38687;PMS5003;24444;53.216;-6.664;2022-12-18T00:56:15;5;4;
38687;PMS5003;24444;53.216;-6.664;2022-12-18T00:58:42;5;5;
38687;PMS5003;24444;53.216;-6.664;2022-12-18T01:01:09;12;12;
38687;PMS5003;24444;53.216;-6.664;2022-12-18T01:03:36;6;5;
38687;PMS5003;24444;53.216;-6.664;2022-12-18T01:06:05;9;9;
38687;PMS5003;24444;53.216;-6.664;2022-12-18T01:08:33;5;3;
38687;PMS5003;24444;53.216;-6.664;2022-12-18T01:11:01;5;5;
38687;PMS5003;24444;53.216;-6.664;2022-12-18T01:13:33;7;4;
38687;PMS5003;24444;53.216;-6.664;2022-12-18T01:16:01;6;4;
38687;PMS5003;24444;53.216;-6.664;2022-12-18T01:18:28;3;3;
38687;PMS5003;24444;53.216;-6.664;2022-12-18T01:20:55;4;4;
38687;PMS5003;24444;53.216;-6.664;2022-12-18T01:23:23;5;5;
38687;PMS5003;24444;53.216;-6.664;2022-12-18T01:25:50;5;4;
38687;PMS5003;24444;53.216;-6.664;2022-12-18T01:28:17;7;4;
38687;PMS5003;24444;53.216;-6.664;2022-12-18T01:30:45;3;3;
38687;PMS5003;24444;53.216;-6.664;2022-12-18T01:33:12;8;7;
38687;PMS5003;24444;53.216;-6.664;2022-12-18T01:35:40;5;4;
38687;PMS5003;24444;53.216;-6.664;2022-12-18T01:38:08;4;4;
38687;PMS5003;24444;53.216;-6.664;2022-12-18T01:40:36;6;5;
38687;PMS5003;24444;53.216;-6.664;2022-12-18T01:43:04;6;3;
38687;PMS5003;24444;53.216;-6.664;2022-12-18T01:45:31;3;3;
38687;PMS5003;24444;53.216;-6.664;2022-12-18T01:47:59;8;6;
38687;PMS5003;24444;53.216;-6.664;2022-12-18T01:50:30;4;3;
38687;PMS5003;24444;53.216;-6.664;2022-12-18T01:53:00;3;3;
38687;PMS5003;24444;53.216;-6.664;2022-12-18T01:55:32;3;3;
38687;PMS5003;24444;53.216;-6.664;2022-12-18T01:58:05;2;2;
38687;PMS5003;24444;53.216;-6.664;2022-12-18T02:00:32;2;2;
38687;PMS5003;24444;53.216;-6.664;2022-12-18T02:03:01;3;3;
38687;PMS5003;24444;53.216;-6.664;2022-12-18T02:05:30;2;2;
38687;PMS5003;24444;53.216;-6.664;2022-12-18T02:08:10;2;2;
38687;PMS5003;24444;53.216;-6.664;2022-12-18T02:10:46;2;2;
38687;PMS5003;24444;53.216;-6.664;2022-12-18T02:13:20;5;2;
38687;PMS5003;24444;53.216;-6.664;2022-12-18T02:16:00;3;3;
38687;PMS5003;24444;53.216;-6.664;2022-12-18T02:18:35;1;1;
38687;PMS5003;24444;53.216;-6.664;2022-12-18T02:21:08;4;3;
38687;PMS5003;24444;53.216;-6.664;2022-12-18T02:23:44;3;2;
38687;PMS5003;24444;53.216;-6.664;2022-12-18T02:26:18;2;2;
38687;PMS5003;24444;53.216;-6.664;2022-12-18T02:28:51;5;2;
38687;PMS5003;24444;53.216;-6.664;2022-12-18T02:31:22;4;4;
38687;PMS5003;24444;53.216;-6.664;2022-12-18T02:33:53;4;3;
38687;PMS5003;24444;53.216;-6.664;2022-12-18T02:36:22;5;4;
38687;PMS5003;24444;53.216;-6.664;2022-12-18T02:38:52;3;3;
38687;PMS5003;24444;53.216;-6.664;2022-12-18T02:41:21;3;2;
38687;PMS5003;24444;53.216;-6.664;2022-12-18T02:43:53;3;2;
38687;PMS5003;24444;53.216;-6.664;2022-12-18T02:46:25;2;2;
38687;PMS5003;24444;53.216;-6.664;2022-12-18T02:48:59;4;2;
38687;PMS5003;24444;53.216;-6.664;2022-12-18T02:51:35;7;7;
38687;PMS5003;24444;53.216;-6.664;2022-12-18T02:54:15;3;2;
38687;PMS5003;24444;53.216;-6.664;2022-12-18T02:56:50;5;4;
38687;PMS5003;24444;53.216;-6.664;2022-12-18T02:59:23;19;16;
38687;PMS5003;24444;53.216;-6.664;2022-12-18T03:01:58;3;2;
38687;PMS5003;24444;53.216;-6.664;2022-12-18T03:04:38;13;11;
38687;PMS5003;24444;53.216;-6.664;2022-12-18T03:07:11;4;3;
38687;PMS5003;24444;53.216;-6.664;2022-12-18T03:09:46;3;3;
38687;PMS5003;24444;53.216;-6.664;2022-12-18T03:12:18;4;4;
38687;PMS5003;24444;53.216;-6.664;2022-12-18T03:14:51;3;3;
38687;PMS5003;24444;53.216;-6.664;2022-12-18T03:17:23;6;6;
38687;PMS5003;24444;53.216;-6.664;2022-12-18T03:19:52;9;9;
38687;PMS5003;24444;53.216;-6.664;2022-12-18T03:22:24;6;5;
38687;PMS5003;24444;53.216;-6.664;2022-12-18T03:24:56;4;3;
38687;PMS5003;24444;53.216;-6.664;2022-12-18T03:27:25;14;13;
38687;PMS5003;24444;53.216;-6.664;2022-12-18T03:29:59;6;5;
38687;PMS5003;24444;53.216;-6.664;2022-12-18T03:32:29;6;5;
38687;PMS5003;24444;53.216;-6.664;2022-12-18T03:35:00;11;8;
38687;PMS5003;24444;53.216;-6.664;2022-12-18T03:37:30;6;5;
38687;PMS5003;24444;53.216;-6.664;2022-12-18T03:39:58;8;6;
38687;PMS5003;24444;53.216;-6.664;2022-12-18T03:42:27;4;3;
38687;PMS5003;24444;53.216;-6.664;2022-12-18T03:45:01;5;4;
38687;PMS5003;24444;53.216;-6.664;2022-12-18T03:47:34;16;16;
38687;PMS5003;24444;53.216;-6.664;2022-12-18T03:50:11;3;2;
38687;PMS5003;24444;53.216;-6.664;2022-12-18T03:52:45;4;3;
38687;PMS5003;24444;53.216;-6.664;2022-12-18T03:55:16;3;3;
38687;PMS5003;24444;53.216;-6.664;2022-12-18T03:57:45;4;3;
38687;PMS5003;24444;53.216;-6.664;2022-12-18T04:00:15;3;3;
38687;PMS5003;24444;53.216;-6.664;2022-12-18T04:02:45;4;4;
38687;PMS5003;24444;53.216;-6.664;2022-12-18T04:05:17;6;4;
38687;PMS5003;24444;53.216;-6.664;2022-12-18T04:07:46;4;4;
38687;PMS5003;24444;53.216;-6.664;2022-12-18T04:10:15;6;5;
38687;PMS5003;24444;53.216;-6.664;2022-12-18T04:12:43;4;4;
38687;PMS5003;24444;53.216;-6.664;2022-12-18T04:15:11;5;4;
38687;PMS5003;24444;53.216;-6.664;2022-12-18T04:17:41;5;4;
38687;PMS5003;24444;53.216;-6.664;2022-12-18T04:20:14;4;4;
38687;PMS5003;24444;53.216;-6.664;2022-12-18T04:22:42;3;2;
38687;PMS5003;24444;53.216;-6.664;2022-12-18T04:25:10;3;3;
38687;PMS5003;24444;53.216;-6.664;2022-12-18T04:27:37;4;4;
38687;PMS5003;24444;53.216;-6.664;2022-12-18T04:30:05;8;5;
38687;PMS5003;24444;53.216;-6.664;2022-12-18T04:32:34;3;3;
38687;PMS5003;24444;53.216;-6.664;2022-12-18T04:35:01;4;3;
38687;PMS5003;24444;53.216;-6.664;2022-12-18T04:37:29;2;2;
38687;PMS5003;24444;53.216;-6.664;2022-12-18T04:39:57;5;4;
38687;PMS5003;24444;53.216;-6.664;2022-12-18T04:42:24;3;3;
38687;PMS5003;24444;53.216;-6.664;2022-12-18T04:44:51;5;3;
38687;PMS5003;24444;53.216;-6.664;2022-12-18T04:47:18;5;3;
38687;PMS5003;24444;53.216;-6.664;2022-12-18T04:49:46;4;3;
38687;PMS5003;24444;53.216;-6.664;2022-12-18T04:52:13;4;2;
38687;PMS5003;24444;53.216;-6.664;2022-12-18T04:54:40;5;2;
38687;PMS5003;24444;53.216;-6.664;2022-12-18T04:57:07;2;2;
38687;PMS5003;24444;53.216;-6.664;2022-12-18T04:59:34;1;1;
38687;PMS5003;24444;53.216;-6.664;2022-12-18T05:02:01;3;2;
38687;PMS5003;24444;53.216;-6.664;2022-12-18T05:04:29;3;2;
38687;PMS5003;24444;53.216;-6.664;2022-12-18T05:06:56;5;4;
38687;PMS5003;24444;53.216;-6.664;2022-12-18T05:09:23;2;2;
38687;PMS5003;24444;53.216;-6.664;2022-12-18T05:11:50;3;3;
38687;PMS5003;24444;53.216;-6.664;2022-12-18T05:14:17;2;2;
38687;PMS5003;24444;53.216;-6.664;2022-12-18T05:16:45;3;3;
38687;PMS5003;24444;53.216;-6.664;2022-12-18T05:19:12;5;3;
38687;PMS5003;24444;53.216;-6.664;2022-12-18T05:21:39;5;3;
38687;PMS5003;24444;53.216;-6.664;2022-12-18T05:24:06;3;3;
38687;PMS5003;24444;53.216;-6.664;2022-12-18T05:26:34;4;3;
38687;PMS5003;24444;53.216;-6.664;2022-12-18T05:29:01;4;3;
38687;PMS5003;24444;53.216;-6.664;2022-12-18T05:31:28;2;2;
38687;PMS5003;24444;53.216;-6.664;2022-12-18T05:33:57;4;3;
38687;PMS5003;24444;53.216;-6.664;2022-12-18T05:36:24;1;1;
38687;PMS5003;24444;53.216;-6.664;2022-12-18T05:38:51;3;3;
38687;PMS5003;24444;53.216;-6.664;2022-12-18T05:41:18;4;2;
38687;PMS5003;24444;53.216;-6.664;2022-12-18T05:43:45;1;1;
38687;PMS5003;24444;53.216;-6.664;2022-12-18T05:46:12;4;3;
38687;PMS5003;24444;53.216;-6.664;2022-12-18T05:48:41;4;2;
38687;PMS5003;24444;53.216;-6.664;2022-12-18T05:51:10;2;1;
38687;PMS5003;24444;53.216;-6.664;2022-12-18T05:53:39;2;2;
38687;PMS5003;24444;53.216;-6.664;2022-12-18T05:56:08;1;1;
38687;PMS5003;24444;53.216;-6.664;2022-12-18T05:58:36;3;2;
38687;PMS5003;24444;53.216;-6.664;2022-12-18T06:01:07;5;2;
38687;PMS5003;24444;53.216;-6.664;2022-12-18T06:03:36;1;1;
38687;PMS5003;24444;53.216;-6.664;2022-12-18T06:06:03;3;2;
38687;PMS5003;24444;53.216;-6.664;2022-12-18T06:08:30;3;2;
38687;PMS5003;24444;53.216;-6.664;2022-12-18T06:10:57;2;2;
38687;PMS5003;24444;53.216;-6.664;2022-12-18T06:13:24;2;2;
38687;PMS5003;24444;53.216;-6.664;2022-12-18T06:15:51;2;2;
38687;PMS5003;24444;53.216;-6.664;2022-12-18T06:18:18;3;3;
38687;PMS5003;24444;53.216;-6.664;2022-12-18T06:20:53;2;2;
38687;PMS5003;24444;53.216;-6.664;2022-12-18T06:23:21;3;2;
38687;PMS5003;24444;53.216;-6.664;2022-12-18T06:25:48;3;3;
38687;PMS5003;24444;53.216;-6.664;2022-12-18T06:28:16;3;2;
38687;PMS5003;24444;53.216;-6.664;2022-12-18T06:30:44;4;3;
38687;PMS5003;24444;53.216;-6.664;2022-12-18T06:33:12;4;3;
38687;PMS5003;24444;53.216;-6.664;2022-12-18T06:35:40;4;4;
38687;PMS5003;24444;53.216;-6.664;2022-12-18T06:38:08;4;3;
38687;PMS5003;24444;53.216;-6.664;2022-12-18T06:40:36;5;4;
38687;PMS5003;24444;53.216;-6.664;2022-12-18T06:43:04;2;2;
38687;PMS5003;24444;53.216;-6.664;2022-12-18T06:45:32;4;2;
38687;PMS5003;24444;53.216;-6.664;2022-12-18T06:47:59;5;3;
38687;PMS5003;24444;53.216;-6.664;2022-12-18T06:50:26;2;2;
38687;PMS5003;24444;53.216;-6.664;2022-12-18T06:52:53;4;3;
38687;PMS5003;24444;53.216;-6.664;2022-12-18T06:55:20;4;3;
38687;PMS5003;24444;53.216;-6.664;2022-12-18T06:57:47;6;6;
38687;PMS5003;24444;53.216;-6.664;2022-12-18T07:00:14;5;4;
38687;PMS5003;24444;53.216;-6.664;2022-12-18T07:02:42;5;5;
38687;PMS5003;24444;53.216;-6.664;2022-12-18T07:05:09;4;4;
38687;PMS5003;24444;53.216;-6.664;2022-12-18T07:07:36;4;3;
38687;PMS5003;24444;53.216;-6.664;2022-12-18T07:10:03;4;4;
38687;PMS5003;24444;53.216;-6.664;2022-12-18T07:12:31;5;4;
38687;PMS5003;24444;53.216;-6.664;2022-12-18T07:14:59;7;6;
38687;PMS5003;24444;53.216;-6.664;2022-12-18T07:17:26;5;5;
38687;PMS5003;24444;53.216;-6.664;2022-12-18T07:19:53;5;5;
38687;PMS5003;24444;53.216;-6.664;2022-12-18T07:22:20;6;4;
38687;PMS5003;24444;53.216;-6.664;2022-12-18T07:24:47;10;7;
38687;PMS5003;24444;53.216;-6.664;2022-12-18T07:27:14;6;5;
38687;PMS5003;24444;53.216;-6.664;2022-12-18T07:29:41;6;6;
38687;PMS5003;24444;53.216;-6.664;2022-12-18T07:32:08;8;7;
38687;PMS5003;24444;53.216;-6.664;2022-12-18T07:34:35;12;6;
38687;PMS5003;24444;53.216;-6.664;2022-12-18T07:37:03;7;7;
38687;PMS5003;24444;53.216;-6.664;2022-12-18T07:39:31;9;7;
38687;PMS5003;24444;53.216;-6.664;2022-12-18T07:41:58;6;5;
38687;PMS5003;24444;53.216;-6.664;2022-12-18T07:44:26;10;9;
38687;PMS5003;24444;53.216;-6.664;2022-12-18T07:46:53;6;6;
38687;PMS5003;24444;53.216;-6.664;2022-12-18T07:49:20;6;5;
38687;PMS5003;24444;53.216;-6.664;2022-12-18T07:51:47;5;5;
38687;PMS5003;24444;53.216;-6.664;2022-12-18T07:54:15;9;6;
38687;PMS5003;24444;53.216;-6.664;2022-12-18T07:56:42;6;5;
38687;PMS5003;24444;53.216;-6.664;2022-12-18T07:59:09;5;4;
38687;PMS5003;24444;53.216;-6.664;2022-12-18T08:01:36;7;5;
38687;PMS5003;24444;53.216;-6.664;2022-12-18T08:04:04;5;5;
38687;PMS5003;24444;53.216;-6.664;2022-12-18T08:06:31;6;6;
38687;PMS5003;24444;53.216;-6.664;2022-12-18T08:08:59;12;7;
38687;PMS5003;24444;53.216;-6.664;2022-12-18T08:11:26;8;7;
38687;PMS5003;24444;53.216;-6.664;2022-12-18T08:13:54;5;5;
38687;PMS5003;24444;53.216;-6.664;2022-12-18T08:16:21;7;6;
38687;PMS5003;24444;53.216;-6.664;2022-12-18T08:18:51;9;7;
38687;PMS5003;24444;53.216;-6.664;2022-12-18T08:21:18;7;7;
38687;PMS5003;24444;53.216;-6.664;2022-12-18T08:23:48;10;9;
38687;PMS5003;24444;53.216;-6.664;2022-12-18T08:26:15;9;7;
38687;PMS5003;24444;53.216;-6.664;2022-12-18T08:28:42;7;7;
38687;PMS5003;24444;53.216;-6.664;2022-12-18T08:31:10;11;9;
38687;PMS5003;24444;53.216;-6.664;2022-12-18T08:33:38;10;10;
38687;PMS5003;24444;53.216;-6.664;2022-12-18T08:36:06;10;10;
38687;PMS5003;24444;53.216;-6.664;2022-12-18T08:38:35;11;10;
38687;PMS5003;24444;53.216;-6.664;2022-12-18T08:41:03;9;9;
38687;PMS5003;24444;53.216;-6.664;2022-12-18T08:43:32;11;9;
38687;PMS5003;24444;53.216;-6.664;2022-12-18T08:45:59;7;7;
38687;PMS5003;24444;53.216;-6.664;2022-12-18T08:48:26;10;7;
38687;PMS5003;24444;53.216;-6.664;2022-12-18T08:50:54;11;8;
38687;PMS5003;24444;53.216;-6.664;2022-12-18T08:53:23;10;9;
38687;PMS5003;24444;53.216;-6.664;2022-12-18T08:55:50;9;7;
38687;PMS5003;24444;53.216;-6.664;2022-12-18T08:58:18;10;8;
38687;PMS5003;24444;53.216;-6.664;2022-12-18T09:00:46;15;10;
38687;PMS5003;24444;53.216;-6.664;2022-12-18T09:03:13;10;10;
38687;PMS5003;24444;53.216;-6.664;2022-12-18T09:05:42;8;8;
38687;PMS5003;24444;53.216;-6.664;2022-12-18T09:08:11;11;11;
38687;PMS5003;24444;53.216;-6.664;2022-12-18T09:10:41;7;6;
38687;PMS5003;24444;53.216;-6.664;2022-12-18T09:13:09;7;7;
38687;PMS5003;24444;53.216;-6.664;2022-12-18T09:15:40;7;6;
38687;PMS5003;24444;53.216;-6.664;2022-12-18T09:18:08;5;5;
38687;PMS5003;24444;53.216;-6.664;2022-12-18T09:20:36;7;7;
38687;PMS5003;24444;53.216;-6.664;2022-12-18T09:23:04;7;6;
38687;PMS5003;24444;53.216;-6.664;2022-12-18T09:25:33;5;5;
38687;PMS5003;24444;53.216;-6.664;2022-12-18T09:28:02;5;5;
38687;PMS5003;24444;53.216;-6.664;2022-12-18T09:30:30;5;5;
38687;PMS5003;24444;53.216;-6.664;2022-12-18T09:32:58;5;5;
38687;PMS5003;24444;53.216;-6.664;2022-12-18T09:35:25;12;7;
38687;PMS5003;24444;53.216;-6.664;2022-12-18T09:37:52;5;4;
38687;PMS5003;24444;53.216;-6.664;2022-12-18T09:40:21;11;7;
38687;PMS5003;24444;53.216;-6.664;2022-12-18T09:42:52;2;2;
38687;PMS5003;24444;53.216;-6.664;2022-12-18T09:45:24;4;3;
38687;PMS5003;24444;53.216;-6.664;2022-12-18T09:47:52;2;2;
38687;PMS5003;24444;53.216;-6.664;2022-12-18T09:50:23;3;3;
38687;PMS5003;24444;53.216;-6.664;2022-12-18T09:52:57;5;4;
38687;PMS5003;24444;53.216;-6.664;2022-12-18T09:55:31;3;3;
38687;PMS5003;24444;53.216;-6.664;2022-12-18T09:58:02;5;4;
38687;PMS5003;24444;53.216;-6.664;2022-12-18T10:00:34;3;2;
38687;PMS5003;24444;53.216;-6.664;2022-12-18T10:03:02;2;2;
38687;PMS5003;24444;53.216;-6.664;2022-12-18T10:05:37;2;2;
38687;PMS5003;24444;53.216;-6.664;2022-12-18T10:08:10;1;1;
38687;PMS5003;24444;53.216;-6.664;2022-12-18T10:10:46;2;2;
38687;PMS5003;24444;53.216;-6.664;2022-12-18T10:13:19;2;2;
38687;PMS5003;24444;53.216;-6.664;2022-12-18T10:15:55;1;1;
38687;PMS5003;24444;53.216;-6.664;2022-12-18T10:18:33;1;1;
38687;PMS5003;24444;53.216;-6.664;2022-12-18T10:21:17;1;1;
38687;PMS5003;24444;53.216;-6.664;2022-12-18T10:23:49;1;1;
38687;PMS5003;24444;53.216;-6.664;2022-12-18T10:26:23;1;1;
38687;PMS5003;24444;53.216;-6.664;2022-12-18T10:28:51;1;1;
38687;PMS5003;24444;53.216;-6.664;2022-12-18T10:31:22;1;0;
38687;PMS5003;24444;53.216;-6.664;2022-12-18T10:33:50;1;1;
38687;PMS5003;24444;53.216;-6.664;2022-12-18T10:36:20;1;1;
38687;PMS5003;24444;53.216;-6.664;2022-12-18T10:38:48;0;0;
38687;PMS5003;24444;53.216;-6.664;2022-12-18T10:41:24;1;0;
38687;PMS5003;24444;53.216;-6.664;2022-12-18T10:44:10;2;1;
38687;PMS5003;24444;53.216;-6.664;2022-12-18T10:46:41;1;1;
38687;PMS5003;24444;53.216;-6.664;2022-12-18T10:49:18;1;1;
38687;PMS5003;24444;53.216;-6.664;2022-12-18T10:51:47;0;0;
38687;PMS5003;24444;53.216;-6.664;2022-12-18T10:54:16;0;0;
38687;PMS5003;24444;53.216;-6.664;2022-12-18T10:56:47;1;1;
38687;PMS5003;24444;53.216;-6.664;2022-12-18T10:59:16;0;0;
38687;PMS5003;24444;53.216;-6.664;2022-12-18T11:01:46;1;1;
38687;PMS5003;24444;53.216;-6.664;2022-12-18T11:04:18;1;1;
38687;PMS5003;24444;53.216;-6.664;2022-12-18T11:06:53;0;0;
38687;PMS5003;24444;53.216;-6.664;2022-12-18T11:09:24;1;1;
38687;PMS5003;24444;53.216;-6.664;2022-12-18T11:11:52;1;1;
38687;PMS5003;24444;53.216;-6.664;2022-12-18T11:14:22;0;0;
38687;PMS5003;24444;53.216;-6.664;2022-12-18T11:16:51;0;0;
38687;PMS5003;24444;53.216;-6.664;2022-12-18T11:19:28;1;0;
38687;PMS5003;24444;53.216;-6.664;2022-12-18T11:21:58;2;2;
38687;PMS5003;24444;53.216;-6.664;2022-12-18T11:24:28;1;1;
38687;PMS5003;24444;53.216;-6.664;2022-12-18T11:26:58;0;0;
38687;PMS5003;24444;53.216;-6.664;2022-12-18T11:29:32;1;0;
38687;PMS5003;24444;53.216;-6.664;2022-12-18T11:32:20;1;0;
38687;PMS5003;24444;53.216;-6.664;2022-12-18T11:34:57;0;0;
38687;PMS5003;24444;53.216;-6.664;2022-12-18T11:37:29;0;0;
38687;PMS5003;24444;53.216;-6.664;2022-12-18T11:40:00;0;0;
38687;PMS5003;24444;53.216;-6.664;2022-12-18T11:42:34;1;0;
38687;PMS5003;24444;53.216;-6.664;2022-12-18T11:45:15;0;0;
38687;PMS5003;24444;53.216;-6.664;2022-12-18T11:47:54;0;0;
38687;PMS5003;24444;53.216;-6.664;2022-12-18T11:50:26;0;0;
38687;PMS5003;24444;53.216;-6.664;2022-12-18T11:52:59;1;0;
38687;PMS5003;24444;53.216;-6.664;2022-12-18T11:55:28;1;0;
38687;PMS5003;24444;53.216;-6.664;2022-12-18T11:58:04;0;0;
38687;PMS5003;24444;53.216;-6.664;2022-12-18T12:00:40;0;0;
38687;PMS5003;24444;53.216;-6.664;2022-12-18T12:03:18;0;0;
38687;PMS5003;24444;53.216;-6.664;2022-12-18T12:05:55;0;0;
38687;PMS5003;24444;53.216;-6.664;2022-12-18T12:08:34;0;0;
38687;PMS5003;24444;53.216;-6.664;2022-12-18T12:11:16;0;0;
38687;PMS5003;24444;53.216;-6.664;2022-12-18T12:14:02;0;0;
38687;PMS5003;24444;53.216;-6.664;2022-12-18T12:16:43;0;0;
38687;PMS5003;24444;53.216;-6.664;2022-12-18T12:19:21;1;1;
38687;PMS5003;24444;53.216;-6.664;2022-12-18T12:22:03;0;0;
38687;PMS5003;24444;53.216;-6.664;2022-12-18T12:24:45;0;0;
38687;PMS5003;24444;53.216;-6.664;2022-12-18T12:27:24;0;0;
38687;PMS5003;24444;53.216;-6.664;2022-12-18T12:30:02;0;0;
38687;PMS5003;24444;53.216;-6.664;2022-12-18T12:32:40;1;1;
38687;PMS5003;24444;53.216;-6.664;2022-12-18T12:35:18;1;1;
38687;PMS5003;24444;53.216;-6.664;2022-12-18T12:37:59;0;0;
38687;PMS5003;24444;53.216;-6.664;2022-12-18T12:40:33;0;0;
38687;PMS5003;24444;53.216;-6.664;2022-12-18T12:43:07;0;0;
38687;PMS5003;24444;53.216;-6.664;2022-12-18T12:45:46;0;0;
38687;PMS5003;24444;53.216;-6.664;2022-12-18T12:48:20;1;1;
38687;PMS5003;24444;53.216;-6.664;2022-12-18T12:50:58;1;0;
38687;PMS5003;24444;53.216;-6.664;2022-12-18T12:53:29;1;1;
38687;PMS5003;24444;53.216;-6.664;2022-12-18T12:56:01;0;0;
38687;PMS5003;24444;53.216;-6.664;2022-12-18T12:58:31;0;0;
38687;PMS5003;24444;53.216;-6.664;2022-12-18T13:01:08;2;2;
38687;PMS5003;24444;53.216;-6.664;2022-12-18T13:03:45;1;1;
38687;PMS5003;24444;53.216;-6.664;2022-12-18T13:06:23;1;1;
38687;PMS5003;24444;53.216;-6.664;2022-12-18T13:09:03;0;0;
38687;PMS5003;24444;53.216;-6.664;2022-12-18T13:11:34;1;1;
38687;PMS5003;24444;53.216;-6.664;2022-12-18T13:14:03;1;1;
38687;PMS5003;24444;53.216;-6.664;2022-12-18T13:16:30;0;0;
38687;PMS5003;24444;53.216;-6.664;2022-12-18T13:18:58;1;1;
38687;PMS5003;24444;53.216;-6.664;2022-12-18T13:21:27;0;0;
38687;PMS5003;24444;53.216;-6.664;2022-12-18T13:23:56;0;0;
38687;PMS5003;24444;53.216;-6.664;2022-12-18T13:26:40;2;2;
38687;PMS5003;24444;53.216;-6.664;2022-12-18T13:29:07;1;1;
38687;PMS5003;24444;53.216;-6.664;2022-12-18T13:32:18;0;0;
38687;PMS5003;24444;53.216;-6.664;2022-12-18T13:34:47;0;0;
38687;PMS5003;24444;53.216;-6.664;2022-12-18T13:37:51;0;0;
38687;PMS5003;24444;53.216;-6.664;2022-12-18T13:41:25;1;1;
38687;PMS5003;24444;53.216;-6.664;2022-12-18T13:43:53;1;1;
38687;PMS5003;24444;53.216;-6.664;2022-12-18T13:46:23;1;1;
38687;PMS5003;24444;53.216;-6.664;2022-12-18T13:48:55;1;1;
38687;PMS5003;24444;53.216;-6.664;2022-12-18T13:51:25;1;1;
38687;PMS5003;24444;53.216;-6.664;2022-12-18T13:53:55;1;1;
38687;PMS5003;24444;53.216;-6.664;2022-12-18T13:56:26;1;1;
38687;PMS5003;24444;53.216;-6.664;2022-12-18T13:59:05;1;1;
38687;PMS5003;24444;53.216;-6.664;2022-12-18T14:01:51;1;1;
38687;PMS5003;24444;53.216;-6.664;2022-12-18T14:04:22;1;1;
38687;PMS5003;24444;53.216;-6.664;2022-12-18T14:06:52;0;0;
38687;PMS5003;24444;53.216;-6.664;2022-12-18T14:09:24;0;0;
38687;PMS5003;24444;53.216;-6.664;2022-12-18T14:11:53;1;0;
38687;PMS5003;24444;53.216;-6.664;2022-12-18T14:14:22;0;0;
38687;PMS5003;24444;53.216;-6.664;2022-12-18T14:16:50;1;1;
38687;PMS5003;24444;53.216;-6.664;2022-12-18T14:19:17;0;0;
38687;PMS5003;24444;53.216;-6.664;2022-12-18T14:21:46;1;0;
38687;PMS5003;24444;53.216;-6.664;2022-12-18T14:24:15;1;1;
38687;PMS5003;24444;53.216;-6.664;2022-12-18T14:26:44;1;1;
38687;PMS5003;24444;53.216;-6.664;2022-12-18T14:29:29;3;3;
38687;PMS5003;24444;53.216;-6.664;2022-12-18T14:32:05;6;3;
38687;PMS5003;24444;53.216;-6.664;2022-12-18T14:34:36;2;2;
38687;PMS5003;24444;53.216;-6.664;2022-12-18T14:37:03;0;0;
38687;PMS5003;24444;53.216;-6.664;2022-12-18T14:39:31;2;2;
38687;PMS5003;24444;53.216;-6.664;2022-12-18T14:41:58;2;2;
38687;PMS5003;24444;53.216;-6.664;2022-12-18T14:44:25;1;1;
38687;PMS5003;24444;53.216;-6.664;2022-12-18T14:46:52;1;1;
38687;PMS5003;24444;53.216;-6.664;2022-12-18T14:49:21;4;3;
38687;PMS5003;24444;53.216;-6.664;2022-12-18T14:51:52;8;8;
38687;PMS5003;24444;53.216;-6.664;2022-12-18T14:54:22;1;1;
38687;PMS5003;24444;53.216;-6.664;2022-12-18T14:56:51;2;2;
38687;PMS5003;24444;53.216;-6.664;2022-12-18T14:59:24;1;1;
38687;PMS5003;24444;53.216;-6.664;2022-12-18T15:01:56;1;1;
38687;PMS5003;24444;53.216;-6.664;2022-12-18T15:04:28;4;4;
38687;PMS5003;24444;53.216;-6.664;2022-12-18T15:07:07;4;4;
38687;PMS5003;24444;53.216;-6.664;2022-12-18T15:09:39;3;3;
38687;PMS5003;24444;53.216;-6.664;2022-12-18T15:12:22;3;3;
38687;PMS5003;24444;53.216;-6.664;2022-12-18T15:14:55;2;2;
38687;PMS5003;24444;53.216;-6.664;2022-12-18T15:17:22;2;2;
38687;PMS5003;24444;53.216;-6.664;2022-12-18T15:19:51;2;2;
38687;PMS5003;24444;53.216;-6.664;2022-12-18T15:22:26;2;2;
38687;PMS5003;24444;53.216;-6.664;2022-12-18T15:24:54;1;1;
38687;PMS5003;24444;53.216;-6.664;2022-12-18T15:27:25;3;3;
38687;PMS5003;24444;53.216;-6.664;2022-12-18T15:30:16;1;1;
38687;PMS5003;24444;53.216;-6.664;2022-12-18T15:32:46;1;1;
38687;PMS5003;24444;53.216;-6.664;2022-12-18T15:35:16;0;0;
38687;PMS5003;24444;53.216;-6.664;2022-12-18T15:37:46;2;2;
38687;PMS5003;24444;53.216;-6.664;2022-12-18T15:40:14;3;2;
38687;PMS5003;24444;53.216;-6.664;2022-12-18T15:42:42;3;3;
38687;PMS5003;24444;53.216;-6.664;2022-12-18T15:45:11;2;1;
38687;PMS5003;24444;53.216;-6.664;2022-12-18T15:47:39;1;1;
38687;PMS5003;24444;53.216;-6.664;2022-12-18T15:50:07;1;1;
38687;PMS5003;24444;53.216;-6.664;2022-12-18T15:52:36;1;1;
38687;PMS5003;24444;53.216;-6.664;2022-12-18T15:55:09;2;1;
38687;PMS5003;24444;53.216;-6.664;2022-12-18T15:57:38;4;4;
38687;PMS5003;24444;53.216;-6.664;2022-12-18T16:00:05;2;1;
38687;PMS5003;24444;53.216;-6.664;2022-12-18T16:02:38;1;1;
38687;PMS5003;24444;53.216;-6.664;2022-12-18T16:05:08;2;2;
38687;PMS5003;24444;53.216;-6.664;2022-12-18T16:07:40;1;1;
38687;PMS5003;24444;53.216;-6.664;2022-12-18T16:10:08;3;3;
38687;PMS5003;24444;53.216;-6.664;2022-12-18T16:12:36;3;3;
38687;PMS5003;24444;53.216;-6.664;2022-12-18T16:15:04;1;1;
38687;PMS5003;24444;53.216;-6.664;2022-12-18T16:17:32;2;2;
38687;PMS5003;24444;53.216;-6.664;2022-12-18T16:20:00;2;2;
38687;PMS5003;24444;53.216;-6.664;2022-12-18T16:22:28;2;1;
38687;PMS5003;24444;53.216;-6.664;2022-12-18T16:24:56;1;1;
38687;PMS5003;24444;53.216;-6.664;2022-12-18T16:27:24;1;1;
38687;PMS5003;24444;53.216;-6.664;2022-12-18T16:29:52;2;2;
38687;PMS5003;24444;53.216;-6.664;2022-12-18T16:32:20;3;3;
38687;PMS5003;24444;53.216;-6.664;2022-12-18T16:34:48;2;1;
38687;PMS5003;24444;53.216;-6.664;2022-12-18T16:37:16;1;1;
38687;PMS5003;24444;53.216;-6.664;2022-12-18T16:39:43;4;4;
38687;PMS5003;24444;53.216;-6.664;2022-12-18T16:42:12;1;1;
38687;PMS5003;24444;53.216;-6.664;2022-12-18T16:44:40;2;2;
38687;PMS5003;24444;53.216;-6.664;2022-12-18T16:47:09;2;1;
38687;PMS5003;24444;53.216;-6.664;2022-12-18T16:49:37;0;0;
38687;PMS5003;24444;53.216;-6.664;2022-12-18T16:52:04;1;1;
38687;PMS5003;24444;53.216;-6.664;2022-12-18T16:54:32;3;3;